PWSweather.com
Personal Weather Stations
Station Observations
KWABLAIN13
Ptl Weather, Blaine, WA

Ptl WeatherBlaine, WA

Lat: 48.997393, Lon: -122.748614

Elevation: 57

Station Type: Davis Advantage Pro 2

http://www.ptlnet.net

Latest ConditionsUpdated 6:30:00 AM PDT Tuesday, Oct 21, 2014
Currently Today's Max Today's Min Today's Average
Temperature 54.1°F12.3°C 55.1°F12.8°C 54.1°F12.3°C 54.6°F12.6°C
Dew Point 52.1°F11.2°C 53.3°F11.8°C 52.1°F11.2°C 52.7°F11.5°C
Winds 7.0 mph SE11.3 kmh SE 9.0 mph SE14.5 kmh SE - 4.7 mph 7.6 kmh
Wind Gusts 8.0 mph12.9 kmh 11.0 mph17.7 kmh - -
Humidity 93% 94% 93% 93%
Pressure 29.77 in1008.1 mb 29.77 in1008.1 mb 29.73 in1006.8 mb -
Hour Temp Dew Point Humidity Winds Wind Gusts Pressure Precip Precip Rate Daily Precip Total
06:30 AM 54.1°F12.3°C 52.1°F11.2°C 93% 7.0 mph SE11.3 kmh SE 8.0 mph12.9 kmh 29.77 in1008.1 mb 0.00 in0.0 mm 0.00 in/hr0.0 mm/hr 0.01 in0.3 mm
06:25 AM 54.2°F12.3°C 52.2°F11.2°C 93% 4.0 mph SE6.4 kmh SE 7.0 mph11.3 kmh 29.77 in1008.1 mb 0.00 in0.0 mm 0.00 in/hr0.0 mm/hr 0.01 in0.3 mm
06:10 AM 54.2°F12.3°C 52.2°F11.2°C 93% 7.0 mph SE11.3 kmh SE 11.0 mph17.7 kmh 29.77 in1008.1 mb 0.00 in0.0 mm 0.00 in/hr0.0 mm/hr 0.01 in0.3 mm
06:04 AM 54.2°F12.3°C 52.2°F11.2°C 93% 4.0 mph ESE6.4 kmh ESE 11.0 mph17.7 kmh 29.77 in1008.1 mb 0.00 in0.0 mm 0.00 in/hr0.0 mm/hr 0.01 in0.3 mm
05:50 AM 54.2°F12.3°C 52.5°F11.4°C 94% 5.0 mph SE8.0 kmh SE 10.0 mph16.1 kmh 29.77 in1008.1 mb 0.00 in0.0 mm 0.00 in/hr0.0 mm/hr 0.01 in0.3 mm
05:44 AM 54.2°F12.3°C 52.5°F11.4°C 94% 8.0 mph SE12.9 kmh SE 10.0 mph16.1 kmh 29.77 in1008.1 mb 0.00 in0.0 mm 0.00 in/hr0.0 mm/hr 0.01 in0.3 mm
05:29 AM 54.2°F12.3°C 52.5°F11.4°C 94% 6.0 mph ESE9.7 kmh ESE 9.0 mph14.5 kmh 29.76 in1007.8 mb 0.00 in0.0 mm 0.00 in/hr0.0 mm/hr 0.01 in0.3 mm
05:25 AM 54.2°F12.3°C 52.5°F11.4°C 94% 6.0 mph SE9.7 kmh SE 9.0 mph14.5 kmh 29.76 in1007.8 mb 0.00 in0.0 mm 0.00 in/hr0.0 mm/hr 0.01 in0.3 mm
05:10 AM 54.4°F12.4°C 52.4°F11.3°C 93% 5.0 mph SE8.0 kmh SE 7.0 mph11.3 kmh 29.76 in1007.8 mb 0.00 in0.0 mm 0.00 in/hr0.0 mm/hr 0.01 in0.3 mm
05:05 AM 54.5°F12.5°C 52.5°F11.4°C 93% 2.0 mph SE3.2 kmh SE 7.0 mph11.3 kmh 29.76 in1007.8 mb 0.00 in0.0 mm 0.00 in/hr0.0 mm/hr 0.01 in0.3 mm
04:50 AM 54.7°F12.6°C 52.7°F11.5°C 93% 4.0 mph SE6.4 kmh SE 11.0 mph17.7 kmh 29.76 in1007.8 mb 0.00 in0.0 mm 0.00 in/hr0.0 mm/hr 0.01 in0.3 mm
04:45 AM 54.7°F12.6°C 52.7°F11.5°C 93% 5.0 mph S8.0 kmh S 11.0 mph17.7 kmh 29.75 in1007.5 mb 0.00 in0.0 mm 0.00 in/hr0.0 mm/hr 0.01 in0.3 mm
04:30 AM 54.8°F12.7°C 52.8°F11.6°C 93% 2.0 mph SE3.2 kmh SE 11.0 mph17.7 kmh 29.75 in1007.5 mb 0.00 in0.0 mm 0.00 in/hr0.0 mm/hr 0.01 in0.3 mm
04:24 AM 54.8°F12.7°C 52.8°F11.6°C 93% 7.0 mph SE11.3 kmh SE 8.0 mph12.9 kmh 29.75 in1007.5 mb 0.00 in0.0 mm 0.00 in/hr0.0 mm/hr 0.01 in0.3 mm
04:10 AM 54.8°F12.7°C 52.8°F11.6°C 93% 9.0 mph SE14.5 kmh SE 9.0 mph14.5 kmh 29.75 in1007.5 mb 0.00 in0.0 mm 0.00 in/hr0.0 mm/hr 0.01 in0.3 mm
04:05 AM 54.8°F12.7°C 52.8°F11.6°C 93% 2.0 mph SSE3.2 kmh SSE 7.0 mph11.3 kmh 29.75 in1007.5 mb 0.00 in0.0 mm 0.00 in/hr0.0 mm/hr 0.01 in0.3 mm
03:50 AM 54.8°F12.7°C 52.8°F11.6°C 93% 4.0 mph SE6.4 kmh SE 8.0 mph12.9 kmh 29.75 in1007.5 mb 0.00 in0.0 mm 0.00 in/hr0.0 mm/hr 0.01 in0.3 mm
03:45 AM 54.7°F12.6°C 52.7°F11.5°C 93% 8.0 mph SSE12.9 kmh SSE 8.0 mph12.9 kmh 29.75 in1007.5 mb 0.00 in0.0 mm 0.00 in/hr0.0 mm/hr 0.01 in0.3 mm
03:30 AM 54.6°F12.6°C 52.6°F11.4°C 93% 7.0 mph SE11.3 kmh SE 7.0 mph11.3 kmh 29.75 in1007.5 mb 0.00 in0.0 mm 0.00 in/hr0.0 mm/hr 0.01 in0.3 mm
03:25 AM 54.6°F12.6°C 52.6°F11.4°C 93% 4.0 mph ESE6.4 kmh ESE 5.0 mph8.0 kmh 29.75 in1007.5 mb 0.00 in0.0 mm 0.00 in/hr0.0 mm/hr 0.01 in0.3 mm
03:09 AM 54.5°F12.5°C 52.5°F11.4°C 93% 1.0 mph ESE1.6 kmh ESE 9.0 mph14.5 kmh 29.75 in1007.5 mb 0.00 in0.0 mm 0.00 in/hr0.0 mm/hr 0.01 in0.3 mm
03:05 AM 54.4°F12.4°C 52.4°F11.3°C 93% 6.0 mph SE9.7 kmh SE 9.0 mph14.5 kmh 29.75 in1007.5 mb 0.00 in0.0 mm 0.00 in/hr0.0 mm/hr 0.01 in0.3 mm
02:50 AM 54.4°F12.4°C 52.4°F11.3°C 93% 5.0 mph SSE8.0 kmh SSE 7.0 mph11.3 kmh 29.75 in1007.5 mb 0.00 in0.0 mm 0.00 in/hr0.0 mm/hr 0.01 in0.3 mm
02:45 AM 54.5°F12.5°C 52.5°F11.4°C 93% 2.0 mph SE3.2 kmh SE 7.0 mph11.3 kmh 29.75 in1007.5 mb 0.00 in0.0 mm 0.00 in/hr0.0 mm/hr 0.01 in0.3 mm
02:29 AM 54.7°F12.6°C 52.7°F11.5°C 93% 6.0 mph SE9.7 kmh SE 6.0 mph9.7 kmh 29.75 in1007.5 mb 0.00 in0.0 mm 0.00 in/hr0.0 mm/hr 0.01 in0.3 mm
02:25 AM 54.7°F12.6°C 52.7°F11.5°C 93% 2.0 mph SE3.2 kmh SE 6.0 mph9.7 kmh 29.75 in1007.5 mb 0.00 in0.0 mm 0.00 in/hr0.0 mm/hr 0.01 in0.3 mm
02:10 AM 54.8°F12.7°C 52.8°F11.6°C 93% 5.0 mph SE8.0 kmh SE 7.0 mph11.3 kmh 29.75 in1007.5 mb 0.01 in0.3 mm 0.00 in/hr0.0 mm/hr 0.01 in0.3 mm
02:04 AM 54.9°F12.7°C 52.9°F11.6°C 93% 4.0 mph SE6.4 kmh SE 8.0 mph12.9 kmh 29.75 in1007.5 mb 0.01 in0.3 mm 0.00 in/hr0.0 mm/hr 0.01 in0.3 mm
01:49 AM 55.0°F12.8°C 53.0°F11.7°C 93% 5.0 mph SE8.0 kmh SE 11.0 mph17.7 kmh 29.75 in1007.5 mb 0.01 in0.3 mm 0.00 in/hr0.0 mm/hr 0.01 in0.3 mm
01:45 AM 55.1°F12.8°C 53.1°F11.7°C 93% 3.0 mph SE4.8 kmh SE 8.0 mph12.9 kmh 29.75 in1007.5 mb 0.01 in0.3 mm 0.00 in/hr0.0 mm/hr 0.01 in0.3 mm
01:29 AM 55.0°F12.8°C 53.3°F11.8°C 94% 5.0 mph SE8.0 kmh SE 7.0 mph11.3 kmh 29.75 in1007.5 mb 0.01 in0.3 mm 0.00 in/hr0.0 mm/hr 0.01 in0.3 mm
01:25 AM 55.0°F12.8°C 53.3°F11.8°C 94% 4.0 mph SE6.4 kmh SE 7.0 mph11.3 kmh 29.75 in1007.5 mb 0.01 in0.3 mm 0.04 in/hr1.0 mm/hr 0.01 in0.3 mm
01:10 AM 55.1°F12.8°C 53.1°F11.7°C 93% 4.0 mph SE6.4 kmh SE 8.0 mph12.9 kmh 29.75 in1007.5 mb 0.00 in0.0 mm 0.00 in/hr0.0 mm/hr 0.00 in0.0 mm
01:05 AM 55.1°F12.8°C 53.1°F11.7°C 93% 5.0 mph SE8.0 kmh SE 6.0 mph9.7 kmh 29.75 in1007.5 mb 0.00 in0.0 mm 0.00 in/hr0.0 mm/hr 0.00 in0.0 mm
12:49 AM 54.9°F12.7°C 52.9°F11.6°C 93% 4.0 mph SE6.4 kmh SE 4.0 mph6.4 kmh 29.74 in1007.1 mb 0.00 in0.0 mm 0.00 in/hr0.0 mm/hr 0.00 in0.0 mm
12:45 AM 54.8°F12.7°C 52.8°F11.6°C 93% 4.0 mph SSE6.4 kmh SSE 8.0 mph12.9 kmh 29.74 in1007.1 mb 0.00 in0.0 mm 0.00 in/hr0.0 mm/hr 0.00 in0.0 mm
12:30 AM 54.6°F12.6°C 52.9°F11.6°C 94% 3.0 mph S4.8 kmh S 6.0 mph9.7 kmh 29.74 in1007.1 mb 0.00 in0.0 mm 0.00 in/hr0.0 mm/hr 0.00 in0.0 mm
12:24 AM 54.5°F12.5°C 52.8°F11.6°C 94% 5.0 mph SE8.0 kmh SE 9.0 mph14.5 kmh 29.73 in1006.8 mb 0.00 in0.0 mm 0.00 in/hr0.0 mm/hr 0.00 in0.0 mm
12:10 AM 54.4°F12.4°C 52.4°F11.3°C 93% 4.0 mph SE6.4 kmh SE 5.0 mph8.0 kmh 29.73 in1006.8 mb 0.00 in0.0 mm 0.00 in/hr0.0 mm/hr 0.00 in0.0 mm
12:04 AM 54.4°F12.4°C 52.4°F11.3°C 93% 5.0 mph SE8.0 kmh SE 7.0 mph11.3 kmh 29.73 in1006.8 mb 0.00 in0.0 mm 0.00 in/hr0.0 mm/hr 0.00 in0.0 mm